createdAt,value
2019-03-19T00:00:07.089Z,0.00
2019-03-19T00:01:07.061Z,0.00
2019-03-19T00:02:07.065Z,0.00
2019-03-19T00:03:07.020Z,0.00
2019-03-19T00:04:06.993Z,0.00
2019-03-19T00:05:06.977Z,0.00
2019-03-19T00:06:06.948Z,0.00
2019-03-19T00:07:06.927Z,0.00
2019-03-19T00:08:06.907Z,0.00
2019-03-19T00:09:06.883Z,0.00
2019-03-19T00:10:06.856Z,0.00
2019-03-19T00:11:06.837Z,0.00
2019-03-19T00:12:06.813Z,0.00
2019-03-19T00:13:06.793Z,0.00
2019-03-19T00:14:06.766Z,0.00
2019-03-19T00:15:06.746Z,0.00
2019-03-19T00:16:06.717Z,0.00
2019-03-19T00:17:06.696Z,0.00
2019-03-19T00:18:06.679Z,0.00
2019-03-19T00:19:06.649Z,0.00
2019-03-19T00:20:06.627Z,0.00
2019-03-19T00:21:06.603Z,0.00
2019-03-19T00:22:06.584Z,0.00
2019-03-19T00:23:06.564Z,0.00
2019-03-19T00:24:06.538Z,0.00
2019-03-19T00:25:06.514Z,0.00
2019-03-19T00:26:06.490Z,0.00
2019-03-19T00:27:06.468Z,0.00
2019-03-19T00:28:06.441Z,0.00
2019-03-19T00:29:06.421Z,0.00
2019-03-19T00:30:06.396Z,0.00
2019-03-19T00:31:06.374Z,0.00
2019-03-19T00:32:06.348Z,0.00
2019-03-19T00:33:06.330Z,0.00
2019-03-19T00:34:06.305Z,0.00
2019-03-19T00:35:06.291Z,0.00
2019-03-19T00:36:06.258Z,0.00
2019-03-19T00:37:06.245Z,0.00
2019-03-19T00:38:06.214Z,0.00
2019-03-19T00:39:06.195Z,0.00
2019-03-19T00:40:06.169Z,0.00
2019-03-19T00:41:06.145Z,0.00
2019-03-19T00:42:06.122Z,0.00
2019-03-19T00:43:06.098Z,0.00
2019-03-19T00:44:06.072Z,0.00
2019-03-19T00:45:06.050Z,0.00
2019-03-19T00:46:06.032Z,0.00
2019-03-19T00:47:06.005Z,0.00
2019-03-19T00:48:05.987Z,0.00
2019-03-19T00:49:06.914Z,0.00
2019-03-19T00:50:05.942Z,0.00
2019-03-19T00:51:05.918Z,0.00
2019-03-19T00:52:05.889Z,0.00
2019-03-19T00:53:05.870Z,0.00
2019-03-19T00:54:05.846Z,0.00
2019-03-19T00:55:05.824Z,0.00
2019-03-19T00:56:05.799Z,0.00
2019-03-19T00:57:05.777Z,0.00
2019-03-19T00:58:05.752Z,0.00
2019-03-19T00:59:05.735Z,0.00
2019-03-19T01:00:05.710Z,0.00
2019-03-19T01:01:05.682Z,0.00
2019-03-19T01:02:05.662Z,0.00
2019-03-19T01:03:05.639Z,0.00
2019-03-19T01:04:05.617Z,0.00
2019-03-19T01:05:05.592Z,0.00
2019-03-19T01:06:05.568Z,0.00
2019-03-19T01:07:05.562Z,0.00
2019-03-19T01:08:05.526Z,0.00
2019-03-19T01:09:05.500Z,0.00
2019-03-19T01:10:05.479Z,0.00
2019-03-19T01:11:05.457Z,0.00
2019-03-19T01:12:05.435Z,0.00
2019-03-19T01:13:05.411Z,0.00
2019-03-19T01:14:05.386Z,0.00
2019-03-19T01:15:05.367Z,0.00
2019-03-19T01:16:05.335Z,0.00
2019-03-19T01:17:05.319Z,0.00
2019-03-19T01:18:05.295Z,0.00
2019-03-19T01:19:05.272Z,0.00
2019-03-19T01:20:05.259Z,0.00
2019-03-19T01:21:05.225Z,0.00
2019-03-19T01:22:05.202Z,0.00
2019-03-19T01:23:05.177Z,0.00
2019-03-19T01:24:05.157Z,0.00
2019-03-19T01:25:05.135Z,0.00
2019-03-19T01:26:05.115Z,0.00
2019-03-19T01:27:05.086Z,0.00
2019-03-19T01:28:05.069Z,0.00
2019-03-19T01:29:05.040Z,0.00
2019-03-19T01:30:05.015Z,0.00
2019-03-19T01:31:04.996Z,0.00
2019-03-19T01:32:04.971Z,0.00
2019-03-19T01:33:04.945Z,0.00
2019-03-19T01:34:04.923Z,0.00
2019-03-19T01:35:04.911Z,0.00
2019-03-19T01:36:04.895Z,0.00
2019-03-19T01:37:04.858Z,0.00
2019-03-19T01:38:04.837Z,0.00
2019-03-19T01:39:04.809Z,0.00
2019-03-19T01:40:04.794Z,0.00
2019-03-19T01:41:04.766Z,0.00
2019-03-19T01:42:04.744Z,0.00
2019-03-19T01:43:04.777Z,0.00
2019-03-19T01:44:04.695Z,0.00
2019-03-19T01:45:04.670Z,0.00
2019-03-19T01:46:04.647Z,0.00
2019-03-19T01:47:04.622Z,0.00
2019-03-19T01:48:04.600Z,0.00
2019-03-19T01:49:04.583Z,0.00
2019-03-19T01:50:04.556Z,0.00
2019-03-19T01:51:04.531Z,0.00
2019-03-19T01:52:04.511Z,0.00
2019-03-19T01:53:04.481Z,0.00
2019-03-19T01:54:04.461Z,0.00
2019-03-19T01:55:04.441Z,0.00
2019-03-19T01:56:05.414Z,0.00
2019-03-19T01:57:04.396Z,0.00
2019-03-19T01:58:04.373Z,0.00
2019-03-19T01:59:04.347Z,0.00
2019-03-19T02:00:04.324Z,0.00
2019-03-19T02:01:04.299Z,0.00
2019-03-19T02:02:04.279Z,0.00
2019-03-19T02:03:04.253Z,0.00
2019-03-19T02:04:04.231Z,0.00
2019-03-19T02:05:04.209Z,0.00
2019-03-19T02:06:04.189Z,0.00
2019-03-19T02:07:04.161Z,0.00
2019-03-19T02:08:04.140Z,0.00
2019-03-19T02:09:04.119Z,0.00
2019-03-19T02:10:04.095Z,0.00
2019-03-19T02:11:04.071Z,0.00
2019-03-19T02:12:04.045Z,0.00
2019-03-19T02:13:04.025Z,0.00
2019-03-19T02:14:03.999Z,0.00
2019-03-19T02:15:03.976Z,0.00
2019-03-19T02:16:03.955Z,0.00
2019-03-19T02:17:03.933Z,0.00
2019-03-19T02:18:03.909Z,0.00
2019-03-19T02:19:03.884Z,0.00
2019-03-19T02:20:03.863Z,0.00
2019-03-19T02:21:03.841Z,0.00
2019-03-19T02:22:03.813Z,0.00
2019-03-19T02:23:04.762Z,0.00
2019-03-19T02:24:03.765Z,0.00
2019-03-19T02:25:03.749Z,0.00
2019-03-19T02:26:03.724Z,0.00
2019-03-19T02:27:03.704Z,0.00
2019-03-19T02:28:03.682Z,0.00
2019-03-19T02:29:03.662Z,0.00
2019-03-19T02:30:03.638Z,0.00
2019-03-19T02:31:03.625Z,0.00
2019-03-19T02:32:03.588Z,0.00
2019-03-19T02:33:03.561Z,0.00
2019-03-19T02:34:03.547Z,0.00
2019-03-19T02:35:03.529Z,0.00
2019-03-19T02:36:03.495Z,0.00
2019-03-19T02:37:03.474Z,0.00
2019-03-19T02:38:03.463Z,0.00
2019-03-19T02:39:03.425Z,0.00
2019-03-19T02:40:03.404Z,0.00
2019-03-19T02:41:03.389Z,0.00
2019-03-19T02:42:03.362Z,0.00
2019-03-19T02:43:03.347Z,0.00
2019-03-19T02:44:03.316Z,0.00
2019-03-19T02:45:03.287Z,0.00
2019-03-19T02:46:03.268Z,0.00
2019-03-19T02:47:03.242Z,0.00
2019-03-19T02:48:03.227Z,0.00
2019-03-19T02:49:03.196Z,0.00
2019-03-19T02:50:03.172Z,0.00
2019-03-19T02:51:03.159Z,0.00
2019-03-19T02:52:03.128Z,0.00
2019-03-19T02:53:03.104Z,0.00
2019-03-19T02:54:03.078Z,0.00
2019-03-19T02:55:03.059Z,0.00
2019-03-19T02:56:03.030Z,0.00
2019-03-19T02:57:03.018Z,0.00
2019-03-19T02:58:02.994Z,0.00
2019-03-19T02:59:02.963Z,0.00
2019-03-19T03:00:02.946Z,0.00
2019-03-19T03:01:02.916Z,0.00
2019-03-19T03:02:02.895Z,0.00
2019-03-19T03:03:02.868Z,0.00
2019-03-19T03:04:02.847Z,0.00
2019-03-19T03:05:02.824Z,0.00
2019-03-19T03:06:02.810Z,0.00
2019-03-19T03:07:02.782Z,0.00
2019-03-19T03:08:02.759Z,0.00
2019-03-19T03:09:02.730Z,0.00
2019-03-19T03:10:02.716Z,0.00
2019-03-19T03:11:02.687Z,0.00
2019-03-19T03:12:02.665Z,0.00
2019-03-19T03:13:02.637Z,0.00
2019-03-19T03:14:02.618Z,0.00
2019-03-19T03:15:02.606Z,0.00
2019-03-19T03:16:02.573Z,0.00
2019-03-19T03:17:02.548Z,0.00
2019-03-19T03:18:02.532Z,0.00
2019-03-19T03:19:02.505Z,0.00
2019-03-19T03:20:02.481Z,0.00
2019-03-19T03:21:02.457Z,0.00
2019-03-19T03:22:02.432Z,0.00
2019-03-19T03:23:02.415Z,0.00
2019-03-19T03:24:02.399Z,0.00
2019-03-19T03:25:02.365Z,0.00
2019-03-19T03:26:02.342Z,0.00
2019-03-19T03:27:02.672Z,0.00
2019-03-19T03:28:02.297Z,0.00
2019-03-19T03:29:02.270Z,0.00
2019-03-19T03:30:02.413Z,0.00
2019-03-19T03:31:02.234Z,0.00
2019-03-19T03:32:02.204Z,0.00
2019-03-19T03:33:02.180Z,0.00
2019-03-19T03:34:02.155Z,0.00
2019-03-19T03:35:02.156Z,0.00
2019-03-19T03:36:02.111Z,0.00
2019-03-19T03:37:02.109Z,0.00
2019-03-19T03:38:02.099Z,0.00
2019-03-19T03:39:02.044Z,0.00
2019-03-19T03:40:02.023Z,0.00
2019-03-19T03:41:01.991Z,0.00
2019-03-19T03:42:01.972Z,0.00
2019-03-19T03:43:01.961Z,0.00
2019-03-19T03:44:01.924Z,0.00
2019-03-19T03:45:01.899Z,0.00
2019-03-19T03:46:01.877Z,0.00
2019-03-19T03:47:01.854Z,0.00
2019-03-19T03:48:01.846Z,0.00
2019-03-19T03:49:01.813Z,0.00
2019-03-19T03:50:01.795Z,0.00
2019-03-19T03:51:01.760Z,0.00
2019-03-19T03:52:01.752Z,0.00
2019-03-19T03:53:01.715Z,0.00
2019-03-19T03:54:01.695Z,0.00
2019-03-19T03:55:01.686Z,0.00
2019-03-19T03:56:01.651Z,0.00
2019-03-19T03:57:02.864Z,0.00
2019-03-19T03:58:01.603Z,0.00
2019-03-19T03:59:01.666Z,0.00
2019-03-19T04:00:01.567Z,0.00
2019-03-19T04:01:01.531Z,0.00
2019-03-19T04:02:01.507Z,0.00
2019-03-19T04:03:01.492Z,0.00
2019-03-19T04:04:01.468Z,0.00
2019-03-19T04:05:01.450Z,0.00
2019-03-19T04:06:01.417Z,0.00
2019-03-19T04:07:01.401Z,0.00
2019-03-19T04:08:01.373Z,0.00
2019-03-19T04:09:01.359Z,0.00
2019-03-19T04:10:01.348Z,0.00
2019-03-19T04:11:01.312Z,0.00
2019-03-19T04:12:01.278Z,0.00
2019-03-19T04:13:01.254Z,0.00
2019-03-19T04:14:01.231Z,0.00
2019-03-19T04:15:01.210Z,0.00
2019-03-19T04:16:01.191Z,0.00
2019-03-19T04:17:01.170Z,0.00
2019-03-19T04:18:01.148Z,0.00
2019-03-19T04:19:01.116Z,0.00
2019-03-19T04:20:01.091Z,0.00
2019-03-19T04:21:01.068Z,0.00
2019-03-19T04:22:01.047Z,0.00
2019-03-19T04:23:01.028Z,0.00
2019-03-19T04:24:01.004Z,0.00
2019-03-19T04:25:00.978Z,0.00
2019-03-19T04:26:00.960Z,0.00
2019-03-19T04:27:14.920Z,0.00
2019-03-19T04:28:00.923Z,0.00
2019-03-19T04:29:00.889Z,0.00
2019-03-19T04:30:00.872Z,0.00
2019-03-19T04:31:00.847Z,0.00
2019-03-19T04:32:00.818Z,0.00
2019-03-19T04:33:00.808Z,0.00
2019-03-19T04:34:00.769Z,0.00
2019-03-19T04:35:00.749Z,0.00
2019-03-19T04:36:00.721Z,0.00
2019-03-19T04:37:00.704Z,0.00
2019-03-19T04:38:00.680Z,0.00
2019-03-19T04:39:00.655Z,0.00
2019-03-19T04:40:00.634Z,0.00
2019-03-19T04:41:00.610Z,0.00
2019-03-19T04:42:00.591Z,0.00
2019-03-19T04:43:00.565Z,4.00
2019-03-19T04:44:00.542Z,4.00
2019-03-19T04:45:00.522Z,0.00
2019-03-19T04:46:00.495Z,0.00
2019-03-19T04:47:00.484Z,4.00
2019-03-19T04:48:00.445Z,0.00
2019-03-19T04:49:00.429Z,4.00
2019-03-19T04:50:00.401Z,4.00
2019-03-19T04:51:00.390Z,4.00
2019-03-19T04:52:00.354Z,4.00
2019-03-19T04:53:00.336Z,4.00
2019-03-19T04:54:00.312Z,4.00
2019-03-19T04:55:00.411Z,8.00
2019-03-19T04:56:00.264Z,8.00
2019-03-19T04:57:00.244Z,8.00
2019-03-19T04:58:00.220Z,8.00
2019-03-19T04:59:00.197Z,12.00
2019-03-19T05:00:00.388Z,12.00
2019-03-19T05:01:00.149Z,16.00
2019-03-19T05:02:00.132Z,16.00
2019-03-19T05:03:00.106Z,20.00
2019-03-19T05:04:00.085Z,24.00
2019-03-19T05:05:00.065Z,28.00
2019-03-19T05:06:00.039Z,32.00
2019-03-19T05:07:00.017Z,36.00
2019-03-19T05:07:59.990Z,36.00
2019-03-19T05:08:59.978Z,36.00
2019-03-19T05:09:59.946Z,40.00
2019-03-19T05:10:59.927Z,44.00
2019-03-19T05:11:59.894Z,64.00
2019-03-19T05:13:00.880Z,72.00
2019-03-19T05:13:59.849Z,72.00
2019-03-19T05:14:59.832Z,84.00
2019-03-19T05:15:59.806Z,100.00
2019-03-19T05:16:59.782Z,116.00
2019-03-19T05:17:59.757Z,124.00
2019-03-19T05:18:59.743Z,132.00
2019-03-19T05:19:59.716Z,140.00
2019-03-19T05:20:59.697Z,136.00
2019-03-19T05:21:59.671Z,136.00
2019-03-19T05:22:59.644Z,164.00
2019-03-19T05:23:59.626Z,196.00
2019-03-19T05:24:59.598Z,216.00
2019-03-19T05:25:59.584Z,244.00
2019-03-19T05:26:59.554Z,260.00
2019-03-19T05:27:59.526Z,288.00
2019-03-19T05:28:59.507Z,316.00
2019-03-19T05:29:59.486Z,320.00
2019-03-19T05:30:59.466Z,344.00
2019-03-19T05:31:59.444Z,368.00
2019-03-19T05:32:59.422Z,412.00
2019-03-19T05:33:59.395Z,464.00
2019-03-19T05:34:59.375Z,500.00
2019-03-19T05:35:59.354Z,500.00
2019-03-19T05:36:59.331Z,480.00
2019-03-19T05:37:59.303Z,532.00
2019-03-19T05:38:59.278Z,512.00
2019-03-19T05:39:59.255Z,560.00
2019-03-19T05:40:59.233Z,572.00
2019-03-19T05:41:59.210Z,648.00
2019-03-19T05:42:59.190Z,788.00
2019-03-19T05:43:59.166Z,908.00
2019-03-19T05:44:59.140Z,940.00
2019-03-19T05:45:59.118Z,956.00
2019-03-19T05:46:59.092Z,972.00
2019-03-19T05:47:59.080Z,932.00
2019-03-19T05:48:59.050Z,1024.00
2019-03-19T05:49:59.023Z,1256.00
2019-03-19T05:50:59.003Z,1432.00
2019-03-19T05:51:58.983Z,1408.00
2019-03-19T05:52:58.961Z,1312.00
2019-03-19T05:53:58.936Z,1308.00
2019-03-19T05:54:58.911Z,1404.00
2019-03-19T05:55:58.889Z,1416.00
2019-03-19T05:56:58.869Z,1240.00
2019-03-19T05:57:58.844Z,1176.00
2019-03-19T05:58:58.821Z,1308.00
2019-03-19T05:59:58.803Z,1532.00
2019-03-19T06:00:58.776Z,1472.00
2019-03-19T06:01:58.755Z,1484.00
2019-03-19T06:02:58.728Z,1508.00
2019-03-19T06:03:58.710Z,1800.00
2019-03-19T06:04:58.687Z,2000.00
2019-03-19T06:05:58.659Z,1760.00
2019-03-19T06:06:58.651Z,1796.00
2019-03-19T06:07:58.623Z,1872.00
2019-03-19T06:08:58.593Z,1828.00
2019-03-19T06:09:58.570Z,1816.00
2019-03-19T06:10:58.545Z,2124.00
2019-03-19T06:11:58.520Z,2412.00
2019-03-19T06:12:58.502Z,2516.00
2019-03-19T06:13:58.478Z,2584.00
2019-03-19T06:14:58.457Z,2456.00
2019-03-19T06:15:58.430Z,2472.00
2019-03-19T06:16:58.408Z,2828.00
2019-03-19T06:17:58.389Z,2780.00
2019-03-19T06:18:58.361Z,2564.00
2019-03-19T06:19:58.339Z,2244.00
2019-03-19T06:20:58.321Z,2396.00
2019-03-19T06:21:58.293Z,2400.00
2019-03-19T06:22:58.275Z,2276.00
2019-03-19T06:23:58.259Z,2284.00
2019-03-19T06:24:58.229Z,2372.00
2019-03-19T06:25:58.220Z,2284.00
2019-03-19T06:26:58.188Z,2148.00
2019-03-19T06:28:00.616Z,1800.00
2019-03-19T06:28:58.145Z,2100.00
2019-03-19T06:29:58.118Z,2556.00
2019-03-19T06:30:58.091Z,3812.00
2019-03-19T06:31:58.074Z,3332.00
2019-03-19T06:32:58.051Z,3680.00
2019-03-19T06:33:58.027Z,3128.00
2019-03-19T06:34:58.003Z,3432.00
2019-03-19T06:35:57.983Z,4676.00
2019-03-19T06:36:57.957Z,5520.00
2019-03-19T06:37:57.936Z,4336.00
2019-03-19T06:38:57.915Z,4516.00
2019-03-19T06:39:57.891Z,4168.00
2019-03-19T06:40:57.871Z,5608.00
2019-03-19T06:41:57.851Z,5928.00
2019-03-19T06:42:57.825Z,5404.00
2019-03-19T06:43:57.801Z,5000.00
2019-03-19T06:44:57.779Z,4760.00
2019-03-19T06:45:57.761Z,4724.00
2019-03-19T06:46:57.735Z,4028.00
2019-03-19T06:47:57.712Z,3624.00
2019-03-19T06:48:57.691Z,3848.00
2019-03-19T06:49:57.667Z,4240.00
2019-03-19T06:50:57.648Z,4460.00
2019-03-19T06:51:57.619Z,4504.00
2019-03-19T06:52:57.601Z,3872.00
2019-03-19T06:53:57.575Z,4940.00
2019-03-19T06:54:57.563Z,4288.00
2019-03-19T06:55:57.530Z,4120.00
2019-03-19T06:56:57.515Z,5340.00
2019-03-19T06:57:57.493Z,5696.00
2019-03-19T06:58:57.468Z,4692.00
2019-03-19T06:59:57.448Z,6160.00
2019-03-19T07:00:57.420Z,5396.00
2019-03-19T07:01:57.408Z,5184.00
2019-03-19T07:02:57.378Z,5496.00
2019-03-19T07:03:57.354Z,5716.00
2019-03-19T07:04:57.329Z,5988.00
2019-03-19T07:05:57.311Z,4764.00
2019-03-19T07:06:57.291Z,6024.00
2019-03-19T07:07:57.271Z,6300.00
2019-03-19T07:08:57.242Z,6968.00
2019-03-19T07:09:57.225Z,6552.00
2019-03-19T07:10:57.206Z,5304.00
2019-03-19T07:11:57.180Z,5568.00
2019-03-19T07:12:57.161Z,7180.00
2019-03-19T07:13:57.136Z,8108.00
2019-03-19T07:14:57.117Z,8040.00
2019-03-19T07:15:57.092Z,10124.00
2019-03-19T07:16:57.069Z,7184.00
2019-03-19T07:17:57.049Z,5280.00
2019-03-19T07:18:57.027Z,4104.00
2019-03-19T07:19:57.011Z,5812.00
2019-03-19T07:20:56.988Z,7892.00
2019-03-19T07:21:56.964Z,8872.00
2019-03-19T07:22:56.942Z,7356.00
2019-03-19T07:23:56.920Z,5652.00
2019-03-19T07:24:56.896Z,7040.00
2019-03-19T07:25:56.879Z,7092.00
2019-03-19T07:26:56.854Z,7096.00
2019-03-19T07:27:56.839Z,9220.00
2019-03-19T07:28:56.814Z,9320.00
2019-03-19T07:29:56.790Z,8212.00
2019-03-19T07:30:56.785Z,15904.00
2019-03-19T07:31:56.745Z,4164.00
2019-03-19T07:32:56.726Z,4780.00
2019-03-19T07:33:56.702Z,4600.00
2019-03-19T07:34:56.683Z,6528.00
2019-03-19T07:35:56.664Z,5344.00
2019-03-19T07:36:56.646Z,5760.00
2019-03-19T07:37:56.619Z,6668.00
2019-03-19T07:38:56.600Z,5784.00
2019-03-19T07:39:56.579Z,8960.00
2019-03-19T07:40:56.556Z,5984.00
2019-03-19T07:41:56.537Z,5960.00
2019-03-19T07:42:56.514Z,4096.00
2019-03-19T07:43:56.494Z,4564.00
2019-03-19T07:44:56.477Z,5756.00
2019-03-19T07:45:56.461Z,7108.00
2019-03-19T07:46:56.432Z,33216.00
2019-03-19T07:47:56.415Z,19232.00
2019-03-19T07:48:56.395Z,44352.00
2019-03-19T07:49:56.368Z,42656.00
2019-03-19T07:50:56.347Z,9076.00
2019-03-19T07:51:56.327Z,7136.00
2019-03-19T07:52:56.304Z,9444.00
2019-03-19T07:53:56.281Z,10212.00
2019-03-19T07:54:56.260Z,22880.00
2019-03-19T07:55:56.242Z,10284.00
2019-03-19T07:56:56.217Z,6840.00
2019-03-19T07:57:56.198Z,7960.00
2019-03-19T07:58:56.186Z,21088.00
2019-03-19T07:59:56.162Z,6760.00
2019-03-19T08:00:56.135Z,6256.00
2019-03-19T08:01:56.118Z,11716.00
2019-03-19T08:02:56.095Z,35520.00
2019-03-19T08:03:56.077Z,32128.00
2019-03-19T08:04:56.060Z,8388.00
2019-03-19T08:05:56.043Z,12372.00
2019-03-19T08:06:56.020Z,41600.00
2019-03-19T08:07:55.994Z,34624.00
2019-03-19T08:08:55.983Z,19744.00
2019-03-19T08:09:55.961Z,15912.00
2019-03-19T08:10:55.938Z,17504.00
2019-03-19T08:11:55.917Z,12264.00
2019-03-19T08:12:55.900Z,10624.00
2019-03-19T08:13:55.893Z,12608.00
2019-03-19T08:14:55.858Z,12032.00
2019-03-19T08:15:55.842Z,13884.00
2019-03-19T08:16:55.820Z,11556.00
2019-03-19T08:17:55.821Z,14144.00
2019-03-19T08:18:55.787Z,10004.00
2019-03-19T08:19:57.258Z,7692.00
2019-03-19T08:20:55.744Z,13204.00
2019-03-19T08:21:55.729Z,9804.00
2019-03-19T08:22:55.710Z,10772.00
2019-03-19T08:23:55.691Z,8256.00
2019-03-19T08:24:55.672Z,8136.00
2019-03-19T08:25:55.675Z,7464.00
2019-03-19T08:26:55.633Z,8636.00
2019-03-19T08:27:55.617Z,11896.00
2019-03-19T08:28:55.758Z,12140.00
2019-03-19T08:29:55.579Z,12500.00
2019-03-19T08:30:55.564Z,8552.00
2019-03-19T08:31:55.541Z,7020.00
2019-03-19T08:32:55.525Z,6740.00
2019-03-19T08:33:55.510Z,11876.00
2019-03-19T08:34:55.483Z,20096.00
2019-03-19T08:35:55.463Z,18784.00
2019-03-19T08:36:55.448Z,19840.00
2019-03-19T08:37:55.430Z,20544.00
2019-03-19T08:38:55.411Z,11248.00
2019-03-19T08:39:56.734Z,8920.00
2019-03-19T08:40:55.375Z,9936.00
2019-03-19T08:41:55.357Z,10660.00
2019-03-19T08:42:55.340Z,17280.00
2019-03-19T08:43:55.320Z,22432.00
2019-03-19T08:44:55.307Z,11488.00
2019-03-19T08:45:55.287Z,9940.00
2019-03-19T08:46:55.269Z,10364.00
2019-03-19T08:47:55.254Z,11932.00
2019-03-19T08:48:55.236Z,21504.00
2019-03-19T08:49:55.220Z,20832.00
2019-03-19T08:50:55.199Z,14604.00
2019-03-19T08:52:42.725Z,12364.00
2019-03-19T08:53:42.701Z,10296.00
2019-03-19T08:54:42.688Z,8684.00
2019-03-19T08:55:42.671Z,10856.00
2019-03-19T08:56:42.653Z,11720.00
2019-03-19T08:57:42.643Z,10888.00
2019-03-19T08:58:42.632Z,11148.00
2019-03-19T08:59:42.616Z,11732.00
2019-03-19T09:00:42.588Z,11120.00
2019-03-19T09:01:42.570Z,11764.00
2019-03-19T09:02:42.553Z,11352.00
2019-03-19T09:03:42.547Z,14400.00
2019-03-19T09:04:42.526Z,14516.00
2019-03-19T09:05:42.501Z,8680.00
2019-03-19T09:06:42.489Z,8472.00
2019-03-19T09:07:42.472Z,12036.00
2019-03-19T09:08:42.451Z,12796.00
2019-03-19T09:09:42.436Z,9456.00
2019-03-19T09:10:42.423Z,6464.00
2019-03-19T09:11:42.404Z,6036.00
2019-03-19T09:12:42.400Z,7260.00
2019-03-19T09:13:42.377Z,8136.00
2019-03-19T09:15:44.915Z,12068.00
2019-03-19T09:16:44.900Z,8764.00
2019-03-19T09:17:47.501Z,9352.00
2019-03-19T09:18:44.866Z,20704.00
2019-03-19T09:19:44.855Z,20064.00
2019-03-19T09:20:44.835Z,18784.00
2019-03-19T09:21:44.818Z,18656.00
2019-03-19T09:22:44.808Z,19712.00
2019-03-19T09:23:44.787Z,19456.00
2019-03-19T09:24:44.768Z,12480.00
2019-03-19T09:25:44.774Z,22656.00
2019-03-19T09:26:44.733Z,10940.00
2019-03-19T09:27:44.745Z,22944.00
2019-03-19T09:28:44.706Z,14056.00
2019-03-19T09:29:44.690Z,24640.00
2019-03-19T09:30:44.675Z,22880.00
2019-03-19T09:31:44.656Z,25536.00
2019-03-19T09:32:44.646Z,26528.00
2019-03-19T09:33:44.635Z,13432.00
2019-03-19T09:34:44.617Z,14132.00
2019-03-19T09:35:44.604Z,26688.00
2019-03-19T09:36:44.596Z,21824.00
2019-03-19T09:37:53.640Z,23904.00
2019-03-19T09:38:44.564Z,12336.00
2019-03-19T09:39:44.552Z,11692.00
2019-03-19T09:40:44.533Z,8456.00
2019-03-19T09:41:44.521Z,6308.00
2019-03-19T09:42:44.516Z,5788.00
2019-03-19T09:43:44.492Z,5468.00
2019-03-19T09:44:44.481Z,5264.00
2019-03-19T09:45:44.483Z,6116.00
2019-03-19T09:46:44.453Z,7144.00
2019-03-19T09:47:44.446Z,7024.00
2019-03-19T09:48:44.428Z,16064.00
2019-03-19T09:49:44.418Z,21984.00
2019-03-19T09:50:44.402Z,23392.00
2019-03-19T09:51:44.394Z,25888.00
2019-03-19T09:52:44.373Z,28256.00
2019-03-19T09:53:44.369Z,28640.00
2019-03-19T09:54:44.355Z,19136.00
2019-03-19T09:55:44.336Z,20608.00
2019-03-19T09:56:44.326Z,18496.00
2019-03-19T09:57:44.318Z,25024.00
2019-03-19T09:58:44.304Z,21632.00
2019-03-19T09:59:44.669Z,11612.00
2019-03-19T10:00:44.289Z,9324.00
2019-03-19T10:01:44.270Z,9820.00
2019-03-19T10:02:44.252Z,11256.00
2019-03-19T10:03:44.247Z,12812.00
2019-03-19T10:04:44.240Z,14648.00
2019-03-19T10:05:44.222Z,25824.00
2019-03-19T10:06:44.210Z,24736.00
2019-03-19T10:07:44.201Z,26208.00
2019-03-19T10:08:44.188Z,11784.00
2019-03-19T10:09:44.180Z,11188.00
2019-03-19T10:10:44.280Z,9732.00
2019-03-19T10:11:44.156Z,9136.00
2019-03-19T10:12:44.138Z,10708.00
2019-03-19T10:13:44.130Z,12128.00
2019-03-19T10:14:44.117Z,13524.00
2019-03-19T10:15:44.119Z,77088.00
2019-03-19T10:16:44.094Z,16524.00
2019-03-19T10:17:44.090Z,36864.00
2019-03-19T10:18:44.072Z,68832.00
2019-03-19T10:19:44.062Z,92288.00
2019-03-19T10:20:44.049Z,89536.00
2019-03-19T10:21:44.041Z,86752.00
2019-03-19T10:22:44.030Z,84000.00
2019-03-19T10:23:44.017Z,81920.00
2019-03-19T10:24:44.004Z,78880.00
2019-03-19T10:25:44.002Z,78336.00
2019-03-19T10:26:43.988Z,75840.00
2019-03-19T10:27:43.985Z,75104.00
2019-03-19T10:28:43.968Z,79840.00
2019-03-19T10:29:43.958Z,87552.00
2019-03-19T10:30:43.953Z,90560.00
2019-03-19T10:31:43.937Z,84224.00
2019-03-19T10:32:43.934Z,14632.00
2019-03-19T10:33:43.922Z,17920.00
2019-03-19T10:34:43.913Z,37184.00
2019-03-19T10:35:43.904Z,46464.00
2019-03-19T10:36:43.896Z,15108.00
2019-03-19T10:37:43.923Z,12276.00
2019-03-19T10:38:43.879Z,11916.00
2019-03-19T10:39:43.865Z,20800.00
2019-03-19T10:40:43.855Z,13188.00
2019-03-19T10:41:43.863Z,13172.00
2019-03-19T10:42:43.844Z,12652.00
2019-03-19T10:43:43.837Z,19488.00
2019-03-19T10:44:43.819Z,23200.00
2019-03-19T10:45:43.815Z,9300.00
2019-03-19T10:46:43.805Z,6760.00
2019-03-19T10:47:43.794Z,5536.00
2019-03-19T10:48:43.779Z,5060.00
2019-03-19T10:49:43.769Z,4712.00
2019-03-19T10:50:43.763Z,4520.00
2019-03-19T10:51:43.760Z,4452.00
2019-03-19T10:52:43.744Z,4528.00
2019-03-19T10:53:43.727Z,4836.00
2019-03-19T10:54:43.723Z,5340.00
2019-03-19T10:55:43.706Z,6196.00
2019-03-19T10:56:43.699Z,7264.00
2019-03-19T10:57:43.687Z,8184.00
2019-03-19T10:58:43.673Z,8968.00
2019-03-19T10:59:49.173Z,11536.00
2019-03-19T11:00:43.650Z,84928.00
2019-03-19T11:01:43.638Z,86656.00
2019-03-19T11:02:43.622Z,82528.00
2019-03-19T11:03:43.615Z,79616.00
2019-03-19T11:04:43.598Z,80000.00
2019-03-19T11:05:43.587Z,87776.00
2019-03-19T11:06:43.583Z,86176.00
2019-03-19T11:07:43.569Z,30272.00
2019-03-19T11:08:43.553Z,83616.00
2019-03-19T11:09:43.537Z,83072.00
2019-03-19T11:10:43.535Z,85952.00
2019-03-19T11:11:43.522Z,87648.00
2019-03-19T11:12:43.513Z,86176.00
2019-03-19T11:13:43.499Z,89952.00
2019-03-19T11:14:43.491Z,91648.00
2019-03-19T11:15:43.480Z,92576.00
2019-03-19T11:16:43.474Z,57888.00
2019-03-19T11:17:43.469Z,9856.00
2019-03-19T11:18:43.451Z,8156.00
2019-03-19T11:19:43.445Z,12012.00
2019-03-19T11:20:45.440Z,80224.00
2019-03-19T11:21:43.427Z,80416.00
2019-03-19T11:22:43.419Z,80864.00
2019-03-19T11:23:43.408Z,83808.00
2019-03-19T11:24:43.397Z,74208.00
2019-03-19T11:25:53.955Z,84864.00
2019-03-19T11:26:43.389Z,82400.00
2019-03-19T11:27:43.374Z,85088.00
2019-03-19T11:28:43.369Z,85664.00
2019-03-19T11:29:43.362Z,80928.00
2019-03-19T11:30:43.351Z,83200.00
2019-03-19T11:31:43.342Z,22080.00
2019-03-19T11:32:43.337Z,66720.00
2019-03-19T11:33:43.327Z,77952.00
2019-03-19T11:34:43.323Z,34784.00
2019-03-19T11:35:45.597Z,75904.00
2019-03-19T11:36:43.306Z,79296.00
2019-03-19T11:37:43.301Z,87552.00
2019-03-19T11:38:43.289Z,66816.00
2019-03-19T11:39:43.285Z,13464.00
2019-03-19T11:40:43.280Z,12316.00
2019-03-19T11:41:43.268Z,9072.00
2019-03-19T11:42:43.264Z,9484.00
2019-03-19T11:43:43.257Z,12188.00
2019-03-19T11:44:43.248Z,22208.00
2019-03-19T11:45:43.241Z,11900.00
2019-03-19T11:46:43.235Z,11316.00
2019-03-19T11:47:43.232Z,14448.00
2019-03-19T11:48:43.221Z,29568.00
2019-03-19T11:49:43.218Z,12568.00
2019-03-19T11:50:43.202Z,10712.00
2019-03-19T11:51:43.199Z,10560.00
2019-03-19T11:52:43.186Z,9516.00
2019-03-19T11:53:43.180Z,21280.00
2019-03-19T11:54:43.168Z,21696.00
2019-03-19T11:55:43.162Z,40096.00
2019-03-19T11:56:43.147Z,63296.00
2019-03-19T11:57:43.139Z,66752.00
2019-03-19T11:58:43.140Z,59776.00
2019-03-19T11:59:43.123Z,55680.00
2019-03-19T12:00:43.114Z,66624.00
2019-03-19T12:01:43.106Z,56672.00
2019-03-19T12:02:43.097Z,32352.00
2019-03-19T12:03:43.088Z,35456.00
2019-03-19T12:04:43.118Z,20416.00
2019-03-19T12:05:43.070Z,33216.00
2019-03-19T12:06:43.066Z,33280.00
2019-03-19T12:07:43.052Z,29376.00
2019-03-19T12:08:43.037Z,31136.00
2019-03-19T12:09:43.033Z,24288.00
2019-03-19T12:10:43.018Z,16024.00
2019-03-19T12:11:43.020Z,11472.00
2019-03-19T12:12:43.002Z,12492.00
2019-03-19T12:13:42.998Z,10604.00
2019-03-19T12:14:42.984Z,9616.00
2019-03-19T12:15:42.978Z,9628.00
2019-03-19T12:16:42.963Z,8912.00
2019-03-19T12:17:42.954Z,8420.00
2019-03-19T12:18:42.948Z,7664.00
2019-03-19T12:19:42.938Z,7696.00
2019-03-19T12:20:42.924Z,7912.00
2019-03-19T12:21:42.917Z,8328.00
2019-03-19T12:22:42.905Z,8560.00
2019-03-19T12:23:42.894Z,8948.00
2019-03-19T12:24:42.882Z,9400.00
2019-03-19T12:25:42.878Z,9984.00
2019-03-19T12:26:42.864Z,9512.00
2019-03-19T12:27:42.856Z,11792.00
2019-03-19T12:28:42.838Z,24320.00
2019-03-19T12:29:42.827Z,17728.00